METAR Data
IDs: Format: Raw Decoded Include TAF

Data at: 1401 UTC 14 Dec 2019

KDDH 141354Z AUTO 36006KT 3SM -RA BR FEW014 OVC030 08/06 A2950 RMK AO2 SLP993 P0003 T00830061
KDDH 141343Z AUTO 01005KT 3SM -RA BR OVC034 08/06 A2951 RMK AO2 P0003 T00830061
KDDH 141326Z AUTO 12006KT 2 1/2SM -RA OVC035 09/06 A2952 RMK AO2 P0002 T00890056
KDDH 141254Z AUTO 14008KT 10SM -RA BKN037 OVC045 09/06 A2954 RMK AO2 SLP006 P0003 T00890056
KDDH 141154Z AUTO 11004KT 10SM -RA BKN043 OVC050 08/06 A2958 RMK AO2 PRESFR SLP018 P0003 60037 70048 T00830056 10100 20078 56052
KDDH 141054Z AUTO 09007KT 060V140 5SM RA BKN060 OVC080 09/06 A2963 RMK AO2 SLP038 P0007 T00890061
KDDH 140954Z AUTO 11013G21KT 8SM -RA OVC065 10/06 A2968 RMK AO2 PK WND 11028/0903 SLP051 P0013 T01000061
KDDH 140854Z AUTO 11014G26KT 080V140 6SM RA OVC070 09/06 A2974 RMK AO2 PK WND 10026/0853 PRESFR SLP072 P0008 60014 T00940061 58064
KDDH 140754Z AUTO 12010G23KT 10SM -RA FEW065 OVC080 09/06 A2982 RMK AO2 SLP100 P0002 T00940056
KDDH 140654Z AUTO 13011G23KT 9SM -RA BKN060 OVC075 10/06 A2987 RMK AO2 PK WND 13026/0640 SLP118 P0004 T01000061
KDDH 140554Z AUTO 13007G18KT 9SM -RA BKN070 OVC080 09/06 A2993 RMK AO2 RAE04B28 SLP137 P0001 60007 T00940056 10094 20061 58037
KDDH 140454Z AUTO VRB04KT 10SM -RA OVC060 07/05 A2998 RMK AO2 SLP158 P0004 T00670050 400891033
KDDH 140354Z AUTO 10SM -RA OVC075 08/04 A3003 RMK AO2 PK WND 13028/0257 SLP172 P0000 T00780044
KDDH 140254Z AUTO 15016G28KT 10SM -RA SCT055 OVC070 08/04 A3004 RMK AO2 PK WND 14030/0217 SLP177 P0001 60002 T00830044 58039
KDDH 140154Z AUTO 14019G30KT 10SM -RA OVC049 08/04 A3008 RMK AO2 PK WND 14030/0154 PRESFR SLP191 P0000 T00830044
KDDH 140054Z AUTO 12011G19KT 10SM -RA FEW050 OVC060 07/03 A3013 RMK AO2 SLP208 P0001 T00670033
KDDH 132354Z AUTO 14010G15KT 120V180 10SM -RA OVC055 06/03 A3016 RMK AO2 SLP219 P0003 60004 T00610033 10067 20039 56020
KDDH 132306Z AUTO 00000KT 10SM -RA SCT016 OVC050 05/03 A3017 RMK AO2 P0000 T00500028
KDDH 132254Z AUTO 32003KT 10SM -RA BKN016 BKN036 OVC050 04/02 A3018 RMK AO2 RAB2159 SLP227 P0001 T00440022
KDDH 132154Z AUTO VRB03KT 10SM BKN018 BKN043 OVC065 06/02 A3020 RMK AO2 RAB36E45 SLP233 P0000 T00560017
KDDH 132054Z AUTO 35005KT 10SM FEW017 SCT033 OVC075 06/02 A3022 RMK AO2 SLP240 T00560017 58022
KDDH 132043Z AUTO 31004KT 10SM SCT017 BKN033 OVC070 06/02 A3022 RMK AO2 T00610017
KDDH 132023Z AUTO VRB03KT 10SM BKN017 OVC036 06/01 A3023 RMK AO2 T00610011
KDDH 131954Z AUTO VRB05KT 10SM FEW016 OVC036 06/01 A3024 RMK AO2 SLP249 T00610011
KDDH 131854Z AUTO VRB04KT 10SM FEW017 OVC033 06/01 A3026 RMK AO2 SLP255 T00610011
KDDH 131754Z AUTO VRB03KT 10SM OVC024 06/00 A3029 RMK AO2 SLP263 T00560000 10056 21011 56037
KDDH 131734Z AUTO 00000KT 10SM BKN027 OVC033 06/M01 A3030 RMK AO2 T00561006
KDDH 131554Z AUTO 13006KT 10SM OVC032 04/M02 A3036 RMK AO2 SLP288 T00391022
KDDH 131454Z AUTO 15010KT 10SM OVC039 02/M03 A3040 RMK AO2 SLP303 T00221028 55007
KDDH 131354Z AUTO 12009KT 10SM OVC039 02/M04 A3039 RMK AO2 SLP301 T00171039
KDDH 131254Z AUTO 16005KT 10SM FEW034 00/M05 A3040 RMK AO2 SLP306 T00001050
KDDH 131154Z AUTO VRB05KT 10SM BKN041 M01/M06 A3042 RMK AO2 SLP311 T10061056 11006 21033 56012
KDDH 131054Z AUTO 17005KT 10SM CLR M02/M07 A3043 RMK AO2 SLP314 T10171067
KDDH 130954Z AUTO 13007KT 10SM CLR M02/M07 A3043 RMK AO2 SLP316 T10171072
KDDH 130854Z AUTO 11006G15KT 10SM CLR M02/M09 A3045 RMK AO2 SLP323 T10221094 58020
KDDH 130754Z AUTO 12010KT 10SM CLR M03/M12 A3049 RMK AO2 SLP336 T10281117
KDDH 130654Z AUTO 00000KT 10SM CLR M03/M12 A3050 RMK AO2 SLP339 T10281122
KDDH 130554Z AUTO 20007KT 10SM CLR M03/M12 A3051 RMK AO2 SLP343 T10281122 11028 21056 58014
KDDH 130454Z AUTO 17007G15KT 10SM CLR M03/M12 A3054 RMK AO2 SLP353 T10281117 410281078
KDDH 130354Z AUTO VRB04KT 10SM CLR M03/M12 A3054 RMK AO2 SLP354 T10281122
KDDH 130254Z AUTO 10SM CLR M03/M12 A3056 RMK AO2 SLP359 T10281122 58013